Time;durP1;ratioP1;P1;durP2;ratioP2;P2;SDS_P1;SDS_P2;PMS_P1;PMS_P2;Temp;Humidity;BMP_temperature;BMP_pressure;BME280_temperature;BME280_humidity;BME280_pressure;Samples;Min_cycle;Max_cycle;Signal;HPM_P1;HPM_P2
2024/03/26 00:02:17;;;;;;;5.35;2.75;;;9.80;93.90;;;;;;5016369;28;20638;-80
2024/03/26 00:04:43;;;;;;;5.85;2.70;;;9.90;93.70;;;;;;5017779;28;20075;-80
2024/03/26 00:07:09;;;;;;;7.93;3.30;;;9.90;93.70;;;;;;5017879;28;20033;-79
2024/03/26 00:09:34;;;;;;;5.93;2.80;;;9.90;93.60;;;;;;5020348;28;20072;-79
2024/03/26 00:12:00;;;;;;;7.78;3.20;;;9.90;93.50;;;;;;5020797;28;20619;-79
2024/03/26 00:14:26;;;;;;;6.82;3.22;;;9.90;93.80;;;;;;5020902;28;20033;-80
2024/03/26 00:16:51;;;;;;;9.82;3.60;;;9.90;93.80;;;;;;5024463;28;20025;-79
2024/03/26 00:19:17;;;;;;;7.97;3.40;;;9.90;94.00;;;;;;5022100;28;20510;-79
2024/03/26 00:21:44;;;;;;;7.05;3.35;;;9.80;94.10;;;;;;5022077;28;20052;-79
2024/03/26 00:24:09;;;;;;;7.25;3.20;;;9.80;94.20;;;;;;5021562;28;20033;-79
2024/03/26 00:26:35;;;;;;;7.50;3.00;;;9.80;94.10;;;;;;5022165;28;20025;-79
2024/03/26 00:29:02;;;;;;;5.00;2.85;;;9.80;93.90;;;;;;5021342;28;20120;-79
2024/03/26 00:31:33;;;;;;;4.82;2.70;;;9.80;93.80;;;;;;5021457;28;20037;-79
2024/03/26 00:33:59;;;;;;;6.28;3.15;;;9.80;93.80;;;;;;5041235;28;20033;-79
2024/03/26 00:36:25;;;;;;;5.85;2.95;;;9.70;94.00;;;;;;5023360;28;20030;-79
2024/03/26 00:38:51;;;;;;;5.88;3.33;;;9.70;94.00;;;;;;5022195;28;20037;-79
2024/03/26 00:41:16;;;;;;;8.93;3.72;;;9.70;93.80;;;;;;5021678;28;20048;-79
2024/03/26 00:43:42;;;;;;;7.00;3.13;;;9.70;93.60;;;;;;5021969;28;20034;-79
2024/03/26 00:46:08;;;;;;;8.65;3.33;;;9.70;93.40;;;;;;5021273;28;20079;-78
2024/03/26 00:48:33;;;;;;;6.00;2.85;;;9.70;93.60;;;;;;5021658;28;20033;-79
2024/03/26 00:50:59;;;;;;;6.68;3.00;;;9.60;93.70;;;;;;5021453;28;20537;-79
2024/03/26 00:53:25;;;;;;;5.10;2.60;;;9.60;93.90;;;;;;5021926;28;20033;-79
2024/03/26 00:55:50;;;;;;;7.03;3.30;;;9.60;94.00;;;;;;5021572;28;20384;-79
2024/03/26 00:58:16;;;;;;;7.63;3.38;;;9.50;94.00;;;;;;5020351;28;20407;-79
2024/03/26 01:00:42;;;;;;;7.15;3.00;;;9.50;93.90;;;;;;5020244;28;20379;-79
2024/03/26 01:03:07;;;;;;;4.82;2.80;;;9.50;93.80;;;;;;5021174;28;20033;-79
2024/03/26 01:05:33;;;;;;;4.47;2.47;;;9.40;94.30;;;;;;5018974;28;20025;-79
2024/03/26 01:07:58;;;;;;;5.78;3.38;;;9.40;93.90;;;;;;5021238;28;20071;-79
2024/03/26 01:10:24;;;;;;;5.43;2.95;;;9.40;93.90;;;;;;5021321;28;20029;-79
2024/03/26 01:12:50;;;;;;;7.10;3.08;;;9.40;93.90;;;;;;5040212;28;20099;-79
2024/03/26 01:15:16;;;;;;;7.70;3.30;;;9.40;94.00;;;;;;5034816;28;20125;-80
2024/03/26 01:17:42;;;;;;;6.93;2.67;;;9.30;94.20;;;;;;5021076;28;20037;-79
2024/03/26 01:20:08;;;;;;;8.20;3.65;;;9.20;94.40;;;;;;5020909;28;20037;-79
2024/03/26 01:22:33;;;;;;;7.30;3.30;;;9.20;94.20;;;;;;5034997;28;20483;-79
2024/03/26 01:24:59;;;;;;;7.53;2.88;;;9.20;94.20;;;;;;5020640;28;20415;-79
2024/03/26 01:27:25;;;;;;;9.68;4.05;;;9.10;94.30;;;;;;5020396;28;21695;-79
2024/03/26 01:29:50;;;;;;;5.53;3.20;;;9.10;94.40;;;;;;5020463;28;20052;-79
2024/03/26 01:32:16;;;;;;;5.50;3.05;;;9.00;94.10;;;;;;5020961;28;20041;-79
2024/03/26 01:34:42;;;;;;;6.97;3.40;;;9.00;94.50;;;;;;5020914;28;20037;-78
2024/03/26 01:37:07;;;;;;;8.02;3.58;;;9.00;94.40;;;;;;5019958;28;20034;-79
2024/03/26 01:39:33;;;;;;;5.45;2.92;;;9.00;94.20;;;;;;5020712;28;20075;-79
2024/03/26 01:41:59;;;;;;;5.30;2.85;;;9.00;94.40;;;;;;5020993;28;20040;-78
2024/03/26 01:44:24;;;;;;;6.15;3.17;;;8.90;94.30;;;;;;5039205;28;20053;-78
2024/03/26 01:46:50;;;;;;;7.97;3.28;;;8.80;94.30;;;;;;5022643;28;20075;-78
2024/03/26 01:49:17;;;;;;;6.57;3.53;;;8.90;94.30;;;;;;5019157;28;20706;-78
2024/03/26 01:51:44;;;;;;;4.88;2.65;;;8.90;94.10;;;;;;5020432;28;20488;-79
2024/03/26 01:54:11;;;;;;;4.45;2.72;;;8.80;94.30;;;;;;5020280;28;20072;-78
2024/03/26 01:56:39;;;;;;;5.95;3.03;;;8.80;94.00;;;;;;5019764;28;20480;-78
2024/03/26 01:59:06;;;;;;;5.82;3.00;;;8.80;93.90;;;;;;5020516;28;20051;-78
2024/03/26 02:01:32;;;;;;;7.53;3.40;;;8.80;93.80;;;;;;5020374;28;20087;-78
2024/03/26 02:03:58;;;;;;;8.57;3.38;;;8.90;93.60;;;;;;5019678;28;20050;-78
2024/03/26 02:06:25;;;;;;;5.82;2.63;;;9.00;93.50;;;;;;5019283;28;20029;-79
2024/03/26 02:08:51;;;;;;;6.40;2.85;;;8.90;93.70;;;;;;5035053;28;20380;-79
2024/03/26 02:11:17;;;;;;;7.38;3.20;;;8.90;93.40;;;;;;5019733;28;20076;-79
2024/03/26 02:13:46;;;;;;;6.22;2.83;;;8.90;93.50;;;;;;5019763;28;20080;-79
2024/03/26 02:16:12;;;;;;;4.47;2.47;;;8.80;93.50;;;;;;5027527;28;20041;-78
2024/03/26 02:18:38;;;;;;;6.20;3.03;;;8.80;93.80;;;;;;5020371;28;20095;-79
2024/03/26 02:21:04;;;;;;;8.13;3.33;;;8.60;93.80;;;;;;5019858;28;20033;-79
2024/03/26 02:23:30;;;;;;;6.70;3.13;;;8.60;93.90;;;;;;5023140;28;20164;-78
2024/03/26 02:25:55;;;;;;;6.05;2.30;;;8.60;93.80;;;;;;5019605;28;20029;-79
2024/03/26 02:28:21;;;;;;;5.60;2.67;;;8.50;94.00;;;;;;5035705;28;20044;-79
2024/03/26 02:30:47;;;;;;;5.45;3.10;;;8.50;94.10;;;;;;5019728;28;20041;-79
2024/03/26 02:33:12;;;;;;;6.80;3.00;;;8.50;94.00;;;;;;5020151;28;20506;-78
2024/03/26 02:35:38;;;;;;;4.97;2.70;;;8.50;93.90;;;;;;5019717;28;20033;-79
2024/03/26 02:38:04;;;;;;;8.82;2.88;;;8.40;94.20;;;;;;5019147;28;20041;-79
2024/03/26 02:40:29;;;;;;;6.22;2.75;;;8.40;94.00;;;;;;5019161;28;20033;-79
2024/03/26 02:42:56;;;;;;;4.93;2.20;;;8.30;94.20;;;;;;5019516;28;20037;-78
2024/03/26 02:45:21;;;;;;;7.78;2.53;;;8.20;94.30;;;;;;5018644;28;20106;-79
2024/03/26 02:47:47;;;;;;;4.55;2.30;;;8.10;94.60;;;;;;5018839;28;20045;-78
2024/03/26 02:50:13;;;;;;;12.10;2.78;;;8.00;94.70;;;;;;5019537;28;20061;-78
2024/03/26 02:52:38;;;;;;;4.28;2.45;;;8.00;94.70;;;;;;5019339;28;20107;-78
2024/03/26 02:55:04;;;;;;;4.47;2.25;;;8.00;94.50;;;;;;5019760;28;20029;-79
2024/03/26 02:57:30;;;;;;;4.38;2.25;;;8.00;94.20;;;;;;5027860;28;20067;-78
2024/03/26 02:59:56;;;;;;;6.22;2.83;;;8.10;94.20;;;;;;5019543;28;20041;-78
2024/03/26 03:02:21;;;;;;;4.72;2.80;;;7.90;94.20;;;;;;5019519;28;20112;-78
2024/03/26 03:04:47;;;;;;;5.18;2.47;;;7.70;94.70;;;;;;5019655;28;20036;-79
2024/03/26 03:07:13;;;;;;;3.53;2.17;;;7.70;94.60;;;;;;5019000;28;20079;-78
2024/03/26 03:09:39;;;;;;;6.78;2.72;;;8.10;93.50;;;;;;5019389;28;20574;-78
2024/03/26 03:12:05;;;;;;;5.88;2.55;;;7.80;94.40;;;;;;5019433;28;20075;-79
2024/03/26 03:14:31;;;;;;;4.72;2.42;;;7.60;94.70;;;;;;5019601;28;20581;-78
2024/03/26 03:16:57;;;;;;;5.32;2.70;;;7.50;94.80;;;;;;5018930;28;20068;-79
2024/03/26 03:19:23;;;;;;;6.82;2.90;;;7.40;94.70;;;;;;5019384;28;20053;-79
2024/03/26 03:21:48;;;;;;;5.15;2.58;;;7.30;94.70;;;;;;5018595;28;20112;-78
2024/03/26 03:24:14;;;;;;;5.18;2.28;;;7.20;94.70;;;;;;5019395;28;20029;-79
2024/03/26 03:26:40;;;;;;;4.45;2.33;;;7.40;94.20;;;;;;5019058;28;20068;-78
2024/03/26 03:29:05;;;;;;;4.03;2.10;;;7.30;94.00;;;;;;5018581;28;20049;-78
2024/03/26 03:31:32;;;;;;;4.75;2.35;;;7.40;94.00;;;;;;5019039;28;20017;-78
2024/03/26 03:33:57;;;;;;;3.97;2.13;;;7.30;93.80;;;;;;5018744;28;20034;-79
2024/03/26 03:36:24;;;;;;;4.00;2.20;;;7.10;94.20;;;;;;5023575;28;20042;-79
2024/03/26 03:38:49;;;;;;;5.45;2.15;;;7.10;93.80;;;;;;5017710;28;20071;-78
2024/03/26 03:41:15;;;;;;;5.78;2.80;;;7.10;93.80;;;;;;5019271;28;20128;-79
2024/03/26 03:43:41;;;;;;;3.65;2.13;;;7.30;94.20;;;;;;5018802;28;20187;-79
2024/03/26 03:46:06;;;;;;;4.55;2.20;;;7.20;94.00;;;;;;5018675;28;20030;-79
2024/03/26 03:48:32;;;;;;;7.95;2.15;;;7.20;94.70;;;;;;5019342;28;20041;-79
2024/03/26 03:50:58;;;;;;;4.50;2.20;;;7.20;93.70;;;;;;5019002;28;20037;-79
2024/03/26 03:53:24;;;;;;;4.32;2.28;;;7.00;93.70;;;;;;5018790;28;20104;-79
2024/03/26 03:55:49;;;;;;;3.92;1.95;;;7.00;93.90;;;;;;5018872;28;20475;-79
2024/03/26 03:58:15;;;;;;;4.88;2.45;;;6.90;94.50;;;;;;5018387;28;20042;-79
2024/03/26 04:00:41;;;;;;;6.72;2.38;;;7.20;94.50;;;;;;5020599;28;20705;-78
2024/03/26 04:03:06;;;;;;;3.05;1.65;;;7.10;94.80;;;;;;5023306;28;20503;-79
2024/03/26 04:05:39;;;;;;;5.05;2.47;;;7.10;93.90;;;;;;5031546;28;20037;-79
2024/03/26 04:08:05;;;;;;;4.03;1.92;;;7.10;93.60;;;;;;5016046;28;20045;-79
2024/03/26 04:10:31;;;;;;;6.72;2.67;;;7.10;94.00;;;;;;5017844;28;20125;-79
2024/03/26 04:12:57;;;;;;;7.50;2.00;;;6.80;94.00;;;;;;5017991;28;20033;-79
2024/03/26 04:15:23;;;;;;;4.18;1.88;;;6.80;94.10;;;;;;5018201;28;20628;-79
2024/03/26 04:17:52;;;;;;;5.82;2.08;;;6.70;94.00;;;;;;5015977;28;20442;-79
2024/03/26 04:20:18;;;;;;;4.45;1.98;;;6.60;94.20;;;;;;5016081;28;20125;-80
2024/03/26 04:22:47;;;;;;;3.30;1.80;;;6.50;94.30;;;;;;5015734;28;20037;-79
2024/03/26 04:25:13;;;;;;;3.72;2.10;;;6.50;94.60;;;;;;5015822;28;20065;-80
2024/03/26 04:27:39;;;;;;;4.30;2.10;;;6.40;94.40;;;;;;5015787;28;20136;-79
2024/03/26 04:30:07;;;;;;;6.32;2.03;;;6.30;94.70;;;;;;5015675;28;20700;-79
2024/03/26 04:32:33;;;;;;;5.45;2.10;;;6.40;94.90;;;;;;5015614;28;20471;-80
2024/03/26 04:34:59;;;;;;;5.78;2.53;;;6.50;94.70;;;;;;5015341;28;20061;-79
2024/03/26 04:37:24;;;;;;;4.10;1.90;;;6.70;94.70;;;;;;5015175;28;20184;-79
2024/03/26 04:39:50;;;;;;;4.60;1.98;;;6.70;95.00;;;;;;5015598;28;21913;-79
2024/03/26 04:42:16;;;;;;;5.53;2.40;;;6.80;94.90;;;;;;5015599;28;20048;-79
2024/03/26 04:44:41;;;;;;;5.40;2.20;;;6.80;94.70;;;;;;5018029;28;20045;-79
2024/03/26 04:47:07;;;;;;;5.22;2.97;;;6.60;95.70;;;;;;5018730;28;20037;-79
2024/03/26 04:49:33;;;;;;;4.95;2.92;;;6.70;95.10;;;;;;5017835;28;20395;-79
2024/03/26 04:51:59;;;;;;;4.78;2.30;;;6.80;94.80;;;;;;5018143;28;20171;-79
2024/03/26 04:54:25;;;;;;;4.75;2.72;;;6.80;94.60;;;;;;5016836;28;20037;-78
2024/03/26 04:56:51;;;;;;;5.95;2.70;;;6.80;94.90;;;;;;5017731;28;20037;-78
2024/03/26 04:59:16;;;;;;;6.63;2.63;;;6.80;95.10;;;;;;5014979;28;20037;-79
2024/03/26 05:01:42;;;;;;;6.55;2.28;;;6.80;94.90;;;;;;5014935;28;20044;-79
2024/03/26 05:04:08;;;;;;;4.97;2.30;;;6.90;94.90;;;;;;5016054;28;20577;-79
2024/03/26 05:06:34;;;;;;;5.15;2.67;;;7.00;94.80;;;;;;5013833;28;20025;-79
2024/03/26 05:09:00;;;;;;;5.47;2.50;;;7.10;94.50;;;;;;5014609;28;20065;-79
2024/03/26 05:11:25;;;;;;;6.35;2.85;;;7.10;95.20;;;;;;5014911;28;20849;-79
2024/03/26 05:13:51;;;;;;;4.25;2.20;;;7.00;95.30;;;;;;5015153;28;20033;-79
2024/03/26 05:16:17;;;;;;;7.82;2.25;;;7.10;94.90;;;;;;5014622;28;20065;-79
2024/03/26 05:18:42;;;;;;;5.35;2.35;;;7.10;95.20;;;;;;5014292;28;20033;-79
2024/03/26 05:21:09;;;;;;;4.30;2.28;;;7.10;95.10;;;;;;5014662;28;20029;-79
2024/03/26 05:23:34;;;;;;;4.85;2.63;;;7.20;94.50;;;;;;5015346;28;20025;-79
2024/03/26 05:26:00;;;;;;;6.45;2.45;;;7.20;94.40;;;;;;5014202;28;20536;-79
2024/03/26 05:28:26;;;;;;;5.40;2.30;;;7.20;94.30;;;;;;5014124;28;20652;-80
2024/03/26 05:30:51;;;;;;;6.32;2.50;;;7.30;94.40;;;;;;5033037;28;20059;-79
2024/03/26 05:33:17;;;;;;;3.97;2.10;;;7.30;94.40;;;;;;5033401;28;20055;-78
2024/03/26 05:35:43;;;;;;;5.78;2.78;;;7.40;94.30;;;;;;5021792;28;20041;-79
2024/03/26 05:38:08;;;;;;;5.35;2.33;;;7.40;94.50;;;;;;5014175;28;20116;-79
2024/03/26 05:40:34;;;;;;;5.63;2.67;;;7.50;94.60;;;;;;5013271;28;20040;-79
2024/03/26 05:43:00;;;;;;;6.82;2.50;;;7.40;94.20;;;;;;5014019;28;20040;-79
2024/03/26 05:45:27;;;;;;;5.07;2.67;;;7.50;94.00;;;;;;5021852;28;20068;-79
2024/03/26 05:47:52;;;;;;;5.85;2.67;;;7.60;94.10;;;;;;5029314;28;20037;-79
2024/03/26 05:50:18;;;;;;;5.82;2.42;;;7.60;94.10;;;;;;5014070;28;20042;-79
2024/03/26 05:52:44;;;;;;;5.20;2.65;;;7.70;94.00;;;;;;5013626;28;20041;-79
2024/03/26 05:55:10;;;;;;;5.10;2.60;;;7.70;94.30;;;;;;5023246;28;20033;-79
2024/03/26 05:57:36;;;;;;;4.35;2.55;;;7.70;94.00;;;;;;5014052;28;20033;-79
2024/03/26 06:00:02;;;;;;;6.40;2.50;;;7.70;94.10;;;;;;5033035;28;21153;-79
2024/03/26 06:02:28;;;;;;;5.82;2.78;;;7.80;94.20;;;;;;5026121;28;20041;-79
2024/03/26 06:04:53;;;;;;;5.80;3.47;;;7.80;94.60;;;;;;5015045;28;20067;-79
2024/03/26 06:07:19;;;;;;;6.43;3.03;;;7.80;94.50;;;;;;5013509;28;20073;-80
2024/03/26 06:09:45;;;;;;;7.63;3.03;;;7.80;94.70;;;;;;5013597;28;20488;-80
2024/03/26 06:12:10;;;;;;;5.75;2.45;;;7.90;94.90;;;;;;5022998;28;20579;-79
2024/03/26 06:14:36;;;;;;;6.40;2.95;;;7.90;94.90;;;;;;5013903;28;20022;-79
2024/03/26 06:17:02;;;;;;;6.40;2.70;;;7.90;95.40;;;;;;5015542;28;20033;-78
2024/03/26 06:19:27;;;;;;;5.32;2.67;;;7.80;95.80;;;;;;5026659;28;20072;-79
2024/03/26 06:21:53;;;;;;;7.22;3.05;;;7.90;96.30;;;;;;5013475;28;20491;-80
2024/03/26 06:24:19;;;;;;;4.28;2.20;;;7.80;96.80;;;;;;5013664;28;20830;-79
2024/03/26 06:26:44;;;;;;;6.47;3.10;;;7.90;97.10;;;;;;5013677;28;20620;-79
2024/03/26 06:29:11;;;;;;;7.13;4.15;;;8.10;97.20;;;;;;5012472;28;20033;-80
2024/03/26 06:31:36;;;;;;;6.82;3.45;;;8.10;97.30;;;;;;5015122;28;20057;-82
2024/03/26 06:34:02;;;;;;;6.57;3.38;;;8.20;97.00;;;;;;5023578;28;20355;-78
2024/03/26 06:36:28;;;;;;;4.65;2.60;;;8.00;97.00;;;;;;5014865;28;21180;-77
2024/03/26 06:38:53;;;;;;;4.05;2.33;;;8.10;97.00;;;;;;5013528;28;20037;-80
2024/03/26 06:41:19;;;;;;;5.75;2.45;;;8.20;97.20;;;;;;5013550;28;20518;-79
2024/03/26 06:43:45;;;;;;;6.38;2.50;;;8.30;97.50;;;;;;5013691;28;20087;-79
2024/03/26 06:46:11;;;;;;;5.20;2.40;;;8.40;97.30;;;;;;5012191;28;21324;-79
2024/03/26 06:48:37;;;;;;;4.97;2.83;;;8.40;97.10;;;;;;5012552;28;20071;-78
2024/03/26 06:51:04;;;;;;;6.10;2.72;;;8.50;97.10;;;;;;5017822;28;20094;-77
2024/03/26 06:53:29;;;;;;;6.63;3.00;;;8.30;97.30;;;;;;5015962;28;20033;-78
2024/03/26 06:55:55;;;;;;;6.57;3.05;;;8.40;97.00;;;;;;5014016;28;20044;-77
2024/03/26 06:58:21;;;;;;;4.82;2.30;;;8.30;96.60;;;;;;5013948;28;20052;-78
2024/03/26 07:00:48;;;;;;;5.80;2.78;;;8.40;96.20;;;;;;5022204;28;20482;-77
2024/03/26 07:03:14;;;;;;;5.93;2.67;;;8.50;96.20;;;;;;5024617;28;20464;-78
2024/03/26 07:05:40;;;;;;;14.23;2.92;;;8.40;96.00;;;;;;5012111;28;20040;-79
2024/03/26 07:08:05;;;;;;;6.97;2.63;;;8.50;96.40;;;;;;5012575;28;20036;-80
2024/03/26 07:10:31;;;;;;;5.32;2.45;;;8.50;97.10;;;;;;5012029;28;20041;-80
2024/03/26 07:12:57;;;;;;;5.32;2.45;;;8.40;97.00;;;;;;5012264;28;20033;-80
2024/03/26 07:15:23;;;;;;;6.35;3.00;;;8.50;97.10;;;;;;5012304;28;20119;-80
2024/03/26 07:17:49;;;;;;;7.88;3.10;;;8.40;97.10;;;;;;5012461;28;20040;-80
2024/03/26 07:20:15;;;;;;;16.52;3.85;;;8.40;97.40;;;;;;5019149;28;20034;-80
2024/03/26 07:22:40;;;;;;;7.32;2.47;;;8.40;97.10;;;;;;5012251;28;20033;-80
2024/03/26 07:25:06;;;;;;;7.00;2.55;;;8.60;96.60;;;;;;5012242;28;20075;-78
2024/03/26 07:27:32;;;;;;;5.70;2.50;;;8.60;96.70;;;;;;5012417;28;20036;-78
2024/03/26 07:29:59;;;;;;;6.88;3.30;;;8.70;96.40;;;;;;5029017;28;20104;-78
2024/03/26 07:32:25;;;;;;;7.32;2.92;;;8.90;96.70;;;;;;5012364;28;20033;-78
2024/03/26 07:34:51;;;;;;;8.65;4.25;;;9.00;96.00;;;;;;5014228;28;20048;-78
2024/03/26 07:37:16;;;;;;;8.23;3.15;;;9.10;96.10;;;;;;5016032;28;20125;-79
2024/03/26 07:39:42;;;;;;;6.68;3.17;;;9.00;95.70;;;;;;5015801;28;20675;-80
2024/03/26 07:42:08;;;;;;;9.48;2.88;;;9.00;96.00;;;;;;5015874;28;20060;-80
2024/03/26 07:44:33;;;;;;;5.82;3.00;;;9.20;95.90;;;;;;5022550;28;20476;-80
2024/03/26 07:46:59;;;;;;;7.15;3.95;;;9.30;96.20;;;;;;5015685;28;20150;-80
2024/03/26 07:49:25;;;;;;;10.88;6.25;;;9.10;95.60;;;;;;5020614;28;20053;-78
2024/03/26 07:51:51;;;;;;;9.13;4.32;;;9.30;95.70;;;;;;5015504;28;20056;-79
2024/03/26 07:54:20;;;;;;;9.32;4.53;;;9.50;95.60;;;;;;5016012;28;20049;-79
2024/03/26 07:56:46;;;;;;;8.73;4.03;;;9.40;95.30;;;;;;5017022;28;20116;-81
2024/03/26 07:59:12;;;;;;;7.82;3.08;;;9.40;95.50;;;;;;5032078;28;20033;-80
2024/03/26 08:01:38;;;;;;;7.95;3.65;;;9.50;96.10;;;;;;5035199;28;20434;-81
2024/03/26 08:04:03;;;;;;;9.00;2.63;;;9.30;95.20;;;;;;5016197;28;20112;-79
2024/03/26 08:06:30;;;;;;;8.90;3.20;;;9.30;95.30;;;;;;5034365;28;20103;-79
2024/03/26 08:08:56;;;;;;;8.63;2.95;;;9.40;94.70;;;;;;5034570;28;20033;-81
2024/03/26 08:11:21;;;;;;;5.53;2.80;;;9.50;94.40;;;;;;5034880;28;20033;-81
2024/03/26 08:13:47;;;;;;;10.00;4.30;;;9.40;94.20;;;;;;5034732;28;20041;-81
2024/03/26 08:16:12;;;;;;;7.60;3.42;;;9.60;94.30;;;;;;5035058;28;20036;-82
2024/03/26 08:18:38;;;;;;;10.27;2.72;;;9.60;94.40;;;;;;5034967;28;20063;-82
2024/03/26 08:21:04;;;;;;;40.60;23.80;;;9.60;94.00;;;;;;5034432;28;20057;-81
2024/03/26 08:23:30;;;;;;;26.00;14.20;;;9.60;94.40;;;;;;5034494;28;20118;-82
2024/03/26 08:25:57;;;;;;;26.02;11.80;;;9.90;94.80;;;;;;5016419;28;20045;-81
2024/03/26 08:28:24;;;;;;;45.25;19.77;;;10.10;95.10;;;;;;5015635;28;20519;-81
2024/03/26 08:30:49;;;;;;;30.48;13.32;;;10.10;95.30;;;;;;5015236;28;20026;-81
2024/03/26 08:33:15;;;;;;;82.65;43.60;;;10.20;95.20;;;;;;5034727;28;20052;-79
2024/03/26 08:35:41;;;;;;;26.80;14.15;;;10.30;95.20;;;;;;5034598;28;20025;-79
2024/03/26 08:38:07;;;;;;;18.17;8.40;;;10.30;95.10;;;;;;5034108;28;20044;-81
2024/03/26 08:40:33;;;;;;;22.23;12.57;;;10.20;94.50;;;;;;5015484;28;20456;-80
2024/03/26 08:42:59;;;;;;;12.38;7.45;;;10.20;95.10;;;;;;5014738;28;20061;-81
2024/03/26 08:45:25;;;;;;;13.35;4.80;;;10.10;94.30;;;;;;5014508;28;20045;-81
2024/03/26 08:47:51;;;;;;;9.57;4.82;;;10.20;94.30;;;;;;5028279;28;20048;-80
2024/03/26 08:50:17;;;;;;;8.07;4.38;;;10.20;94.00;;;;;;5017270;28;20468;-81
2024/03/26 08:52:43;;;;;;;6.72;3.17;;;10.40;94.40;;;;;;5014013;28;20052;-81
2024/03/26 08:55:09;;;;;;;9.52;3.38;;;10.20;94.30;;;;;;5034070;28;20047;-82
2024/03/26 08:57:35;;;;;;;8.00;4.55;;;10.00;94.30;;;;;;5034013;28;20655;-80
2024/03/26 09:00:03;;;;;;;8.18;2.88;;;9.90;94.60;;;;;;5034253;28;20033;-81
2024/03/26 09:02:29;;;;;;;8.95;3.38;;;10.00;94.70;;;;;;5033880;28;20037;-82
2024/03/26 09:04:54;;;;;;;9.90;2.60;;;10.00;94.00;;;;;;5021128;28;20525;-78
2024/03/26 09:07:20;;;;;;;7.50;2.88;;;9.90;94.10;;;;;;5034109;28;20044;-80
2024/03/26 09:09:46;;;;;;;12.35;4.18;;;10.00;94.50;;;;;;5014821;28;20415;-78
2024/03/26 09:12:11;;;;;;;7.80;3.97;;;10.00;94.70;;;;;;5014384;28;20476;-79
2024/03/26 09:14:37;;;;;;;15.48;3.55;;;10.10;94.90;;;;;;5014935;28;20345;-80
2024/03/26 09:17:03;;;;;;;11.10;3.58;;;10.20;96.30;;;;;;5014533;28;20579;-80
2024/03/26 09:19:29;;;;;;;11.57;3.00;;;10.40;94.10;;;;;;5015091;28;20533;-80
2024/03/26 09:21:55;;;;;;;6.60;2.72;;;10.30;94.10;;;;;;5015624;28;20025;-79
2024/03/26 09:24:21;;;;;;;6.20;2.97;;;10.30;94.50;;;;;;5021489;28;20032;-80
2024/03/26 09:26:47;;;;;;;9.27;3.08;;;10.40;94.50;;;;;;5033158;28;20063;-79
2024/03/26 09:29:12;;;;;;;7.78;3.20;;;10.60;94.20;;;;;;5025514;28;20116;-78
2024/03/26 09:31:39;;;;;;;7.45;3.03;;;10.70;93.60;;;;;;5015593;28;20025;-80
2024/03/26 09:34:05;;;;;;;7.03;3.00;;;10.70;94.40;;;;;;5014636;28;20053;-80
2024/03/26 09:36:31;;;;;;;10.55;4.47;;;11.40;93.40;;;;;;5021605;28;20033;-79
2024/03/26 09:38:57;;;;;;;8.77;3.05;;;10.90;93.50;;;;;;5014257;28;20029;-78
2024/03/26 09:41:28;;;;;;;4.95;2.28;;;10.70;93.50;;;;;;5014093;28;20358;-78
2024/03/26 09:43:54;;;;;;;7.57;3.22;;;10.60;93.10;;;;;;5014161;28;20030;-82
2024/03/26 09:46:22;;;;;;;6.55;2.92;;;10.60;94.00;;;;;;5014356;28;20406;-81
2024/03/26 09:48:48;;;;;;;9.25;3.45;;;10.40;94.00;;;;;;5014176;28;20080;-82
2024/03/26 09:51:14;;;;;;;9.48;3.65;;;10.50;94.20;;;;;;5013969;28;20416;-82
2024/03/26 09:53:43;;;;;;;9.10;3.10;;;10.40;93.70;;;;;;5032454;28;20612;-79
2024/03/26 09:56:10;;;;;;;14.52;3.63;;;10.40;94.30;;;;;;5014103;28;20056;-79
2024/03/26 09:58:36;;;;;;;6.18;3.58;;;10.50;94.00;;;;;;5013285;28;20083;-80
2024/03/26 10:01:03;;;;;;;6.63;3.17;;;10.50;94.00;;;;;;5014063;28;20099;-79
2024/03/26 10:03:32;;;;;;;7.75;3.20;;;10.40;93.90;;;;;;5013567;28;20851;-80
2024/03/26 10:05:59;;;;;;;7.05;3.08;;;10.40;94.20;;;;;;5013493;28;20060;-79
2024/03/26 10:08:25;;;;;;;7.00;3.40;;;10.40;93.90;;;;;;5031862;28;20033;-78
2024/03/26 10:10:51;;;;;;;7.65;3.20;;;10.30;93.50;;;;;;5032530;28;20515;-79
2024/03/26 10:13:17;;;;;;;5.90;2.95;;;10.40;93.80;;;;;;5032773;28;20037;-79
2024/03/26 10:15:43;;;;;;;8.63;3.22;;;10.40;93.50;;;;;;5013820;28;21004;-79
2024/03/26 10:18:10;;;;;;;8.68;2.92;;;10.30;93.80;;;;;;5013832;28;20541;-79
2024/03/26 10:20:35;;;;;;;8.48;3.20;;;10.40;94.20;;;;;;5013773;28;20025;-78
2024/03/26 10:23:03;;;;;;;6.45;2.97;;;10.30;94.20;;;;;;5013293;28;20768;-79
2024/03/26 10:25:29;;;;;;;6.85;3.45;;;10.40;94.00;;;;;;5031796;28;20491;-79
2024/03/26 10:28:00;;;;;;;9.23;3.60;;;10.40;94.20;;;;;;5032156;28;20037;-79
2024/03/26 10:30:26;;;;;;;8.77;4.47;;;10.50;93.90;;;;;;5032162;28;20037;-79
2024/03/26 10:32:59;;;;;;;7.00;3.30;;;10.40;93.90;;;;;;5032006;28;20296;-78
2024/03/26 10:35:26;;;;;;;9.98;3.30;;;10.50;93.90;;;;;;5013219;28;20767;-79
2024/03/26 10:37:53;;;;;;;7.65;3.20;;;10.50;94.00;;;;;;5029764;28;20028;-79
2024/03/26 10:40:31;;;;;;;8.07;2.92;;;10.60;93.90;;;;;;5012972;28;20578;-79
2024/03/26 10:43:01;;;;;;;6.45;3.33;;;10.50;93.60;;;;;;5031654;28;20059;-79
2024/03/26 10:45:27;;;;;;;7.72;3.60;;;10.50;93.90;;;;;;5032274;28;21025;-78
2024/03/26 10:47:55;;;;;;;7.22;2.78;;;10.50;94.30;;;;;;5031779;28;20406;-79
2024/03/26 10:50:21;;;;;;;8.38;3.47;;;10.40;94.10;;;;;;5032252;28;20767;-79
2024/03/26 10:52:48;;;;;;;6.38;3.13;;;10.50;94.60;;;;;;5031913;28;20029;-79
2024/03/26 10:55:14;;;;;;;5.43;2.80;;;10.50;94.30;;;;;;5032107;28;20067;-79
2024/03/26 10:57:44;;;;;;;7.53;3.05;;;10.50;94.40;;;;;;5031786;28;21085;-79
2024/03/26 11:00:12;;;;;;;8.90;2.95;;;10.50;94.50;;;;;;5032250;28;20035;-79
2024/03/26 11:02:45;;;;;;;9.13;3.63;;;10.50;94.50;;;;;;5031998;28;20044;-78
2024/03/26 11:05:13;;;;;;;7.75;3.00;;;10.50;94.40;;;;;;5034163;28;21408;-79
2024/03/26 11:07:41;;;;;;;8.57;3.13;;;10.60;94.50;;;;;;5034583;28;20121;-79
2024/03/26 11:10:11;;;;;;;5.85;2.85;;;10.50;94.70;;;;;;5038951;28;20106;-79
2024/03/26 11:12:38;;;;;;;7.50;3.08;;;10.40;94.70;;;;;;5038003;28;20041;-79
2024/03/26 11:15:27;;;;;;;12.35;3.85;;;10.40;94.60;;;;;;5037762;28;20039;-78
2024/03/26 11:17:57;;;;;;;9.70;3.67;;;10.30;94.60;;;;;;5038293;28;20033;-78
2024/03/26 11:20:25;;;;;;;7.93;3.50;;;10.40;94.10;;;;;;5038692;28;20033;-79
2024/03/26 11:23:06;;;;;;;9.50;4.15;;;10.30;94.20;;;;;;5038647;28;21367;-79
2024/03/26 11:25:33;;;;;;;11.25;3.63;;;10.40;94.40;;;;;;5037914;28;20033;-78
2024/03/26 11:28:01;;;;;;;8.10;3.47;;;10.40;94.10;;;;;;5038099;28;20047;-79
2024/03/26 11:30:28;;;;;;;6.80;3.40;;;10.40;94.20;;;;;;5038250;28;20043;-79
2024/03/26 11:32:54;;;;;;;6.18;3.20;;;10.50;94.20;;;;;;5038065;28;20049;-78
2024/03/26 11:35:27;;;;;;;9.00;3.72;;;10.50;94.00;;;;;;5038597;28;20028;-79
2024/03/26 11:37:57;;;;;;;9.98;3.25;;;10.70;94.50;;;;;;5037551;28;20082;-78
2024/03/26 11:40:23;;;;;;;5.63;2.95;;;10.70;93.70;;;;;;5037907;28;20035;-78
2024/03/26 11:42:53;;;;;;;6.63;3.75;;;10.70;93.80;;;;;;5019508;28;20041;-79
2024/03/26 11:45:19;;;;;;;5.85;3.10;;;10.80;93.80;;;;;;5019415;28;20140;-79
2024/03/26 11:47:45;;;;;;;9.27;3.10;;;10.90;94.10;;;;;;5019345;28;20033;-78
2024/03/26 11:50:11;;;;;;;6.55;2.85;;;11.10;93.90;;;;;;5019455;28;20044;-79
2024/03/26 11:52:38;;;;;;;5.75;2.72;;;11.20;94.00;;;;;;5029390;28;20045;-79
2024/03/26 11:55:05;;;;;;;6.78;2.97;;;11.20;94.90;;;;;;5037280;28;20190;-79
2024/03/26 11:57:31;;;;;;;7.07;3.30;;;11.10;94.90;;;;;;5018715;28;20040;-79
2024/03/26 11:59:57;;;;;;;10.93;3.95;;;11.10;94.70;;;;;;5018474;28;20598;-79
2024/03/26 12:02:23;;;;;;;10.82;3.88;;;11.10;94.90;;;;;;5018984;28;20116;-79
2024/03/26 12:04:49;;;;;;;11.05;3.72;;;11.00;94.60;;;;;;5019117;28;20037;-79
2024/03/26 12:07:27;;;;;;;11.30;3.83;;;11.10;94.30;;;;;;5024083;28;20094;-79
2024/03/26 12:09:53;;;;;;;7.32;4.22;;;11.10;94.90;;;;;;5037747;28;20149;-79
2024/03/26 12:12:18;;;;;;;8.23;4.32;;;11.10;94.00;;;;;;5037371;28;20036;-79
2024/03/26 12:14:45;;;;;;;10.55;4.00;;;11.20;94.20;;;;;;5036936;28;20596;-79
2024/03/26 12:17:11;;;;;;;9.25;4.35;;;11.20;93.90;;;;;;5034696;28;20132;-82
2024/03/26 12:19:41;;;;;;;10.35;3.70;;;11.10;94.20;;;;;;5033767;28;20383;-79
2024/03/26 12:22:08;;;;;;;11.07;4.28;;;11.00;94.40;;;;;;5036337;28;20123;-79
2024/03/26 12:24:37;;;;;;;7.85;4.00;;;11.00;93.90;;;;;;5018281;28;20032;-79
2024/03/26 12:27:06;;;;;;;9.02;4.28;;;11.00;93.90;;;;;;5018476;28;20038;-79
2024/03/26 12:29:32;;;;;;;12.93;4.57;;;11.10;94.30;;;;;;5036327;28;20037;-79
2024/03/26 12:31:59;;;;;;;8.50;3.90;;;11.00;94.50;;;;;;5037082;28;20398;-79
2024/03/26 12:34:27;;;;;;;7.68;4.03;;;10.90;95.60;;;;;;5035973;28;20033;-79
2024/03/26 12:36:53;;;;;;;7.82;3.20;;;10.90;95.50;;;;;;5033789;28;20223;-79
2024/03/26 12:39:20;;;;;;;4.68;1.90;;;10.70;95.90;;;;;;5016301;28;20029;-79
2024/03/26 12:41:46;;;;;;;3.58;1.75;;;10.70;96.00;;;;;;5015688;28;20091;-79
2024/03/26 12:44:13;;;;;;;3.58;1.48;;;10.60;96.00;;;;;;5015253;28;20080;-79
2024/03/26 12:46:40;;;;;;;3.75;1.98;;;10.40;96.60;;;;;;5015441;28;21663;-79
2024/03/26 12:49:06;;;;;;;3.50;1.45;;;10.20;95.50;;;;;;5015339;28;20064;-79